createdAt,value
2018-05-12T00:02:15.903Z,11.70
2018-05-12T00:04:43.373Z,11.80
2018-05-12T00:07:11.607Z,11.80
2018-05-12T00:09:39.078Z,11.80
2018-05-12T00:12:06.553Z,11.80
2018-05-12T00:14:34.047Z,11.80
2018-05-12T00:17:02.290Z,11.70
2018-05-12T00:19:29.759Z,11.70
2018-05-12T00:21:57.222Z,11.80
2018-05-12T00:24:24.689Z,11.80
2018-05-12T00:26:52.170Z,11.70
2018-05-12T00:29:19.641Z,11.80
2018-05-12T00:31:47.894Z,11.80
2018-05-12T00:34:15.370Z,11.70
2018-05-12T00:36:42.847Z,11.70
2018-05-12T00:39:10.306Z,11.70
2018-05-12T00:41:37.773Z,11.70
2018-05-12T00:44:05.257Z,11.60
2018-05-12T00:46:33.489Z,11.60
2018-05-12T00:49:00.981Z,11.60
2018-05-12T00:51:28.449Z,11.60
2018-05-12T00:53:56.683Z,11.60
2018-05-12T00:56:24.165Z,11.60
2018-05-12T00:58:51.660Z,11.60
2018-05-12T01:01:19.877Z,11.50
2018-05-12T01:03:47.352Z,11.50
2018-05-12T01:06:14.821Z,11.50
2018-05-12T01:08:42.332Z,11.50
2018-05-12T01:11:09.801Z,11.40
2018-05-12T01:13:38.092Z,11.30
2018-05-12T01:16:05.513Z,11.20
2018-05-12T01:18:32.983Z,11.20
2018-05-12T01:21:00.476Z,11.20
2018-05-12T01:23:28.709Z,11.20
2018-05-12T01:25:56.187Z,11.10
2018-05-12T01:28:23.661Z,11.10
2018-05-12T01:30:51.144Z,11.10
2018-05-12T01:33:19.398Z,11.00
2018-05-12T01:35:46.873Z,11.00
2018-05-12T01:38:14.345Z,10.90
2018-05-12T01:40:41.817Z,10.90
2018-05-12T01:43:10.043Z,10.90
2018-05-12T01:45:37.535Z,10.80
2018-05-12T01:48:05.011Z,10.80
2018-05-12T01:50:32.477Z,10.80
2018-05-12T01:52:59.951Z,10.80
2018-05-12T01:55:28.191Z,10.80
2018-05-12T01:57:56.500Z,10.70
2018-05-12T02:00:23.933Z,10.70
2018-05-12T02:02:51.418Z,10.70
2018-05-12T02:05:18.897Z,10.70
2018-05-12T02:07:46.393Z,10.70
2018-05-12T02:10:13.882Z,10.60
2018-05-12T02:12:41.360Z,10.60
2018-05-12T02:15:08.829Z,10.60
2018-05-12T02:17:36.318Z,10.60
2018-05-12T02:20:03.801Z,10.60
2018-05-12T02:22:32.054Z,10.60
2018-05-12T02:24:59.524Z,10.50
2018-05-12T02:27:27.003Z,10.50
2018-05-12T02:29:55.248Z,10.50
2018-05-12T02:32:22.720Z,10.40
2018-05-12T02:34:50.224Z,10.40
2018-05-12T02:37:18.480Z,10.40
2018-05-12T02:39:45.950Z,10.30
2018-05-12T02:42:14.186Z,10.30
2018-05-12T02:44:41.670Z,10.30
2018-05-12T02:47:09.154Z,10.30
2018-05-12T02:49:36.629Z,10.20
2018-05-12T02:52:04.879Z,10.20
2018-05-12T02:54:32.356Z,10.10
2018-05-12T02:56:59.824Z,10.10
2018-05-12T02:59:27.317Z,10.10
2018-05-12T03:01:54.793Z,10.00
2018-05-12T03:04:22.277Z,10.00
2018-05-12T03:06:49.751Z,10.00
2018-05-12T03:09:17.222Z,10.00
2018-05-12T03:11:44.706Z,10.00
2018-05-12T03:14:12.179Z,10.00
2018-05-12T03:16:40.418Z,9.90
2018-05-12T03:19:07.880Z,9.90
2018-05-12T03:21:35.353Z,9.90
2018-05-12T03:24:02.834Z,9.90
2018-05-12T03:26:30.318Z,9.90
2018-05-12T03:28:58.560Z,9.90
2018-05-12T03:31:26.023Z,9.90
2018-05-12T03:33:53.483Z,9.90
2018-05-12T03:36:20.961Z,9.80
2018-05-12T03:38:48.426Z,9.80
2018-05-12T03:41:15.906Z,9.80
2018-05-12T03:43:43.373Z,9.70
2018-05-12T03:46:10.841Z,9.70
2018-05-12T03:48:39.094Z,9.80
2018-05-12T03:51:06.561Z,9.80
2018-05-12T03:53:34.066Z,9.80
2018-05-12T03:56:01.533Z,9.90
2018-05-12T03:58:29.771Z,9.90
2018-05-12T04:00:57.250Z,9.90
2018-05-12T04:03:24.724Z,9.90
2018-05-12T04:06:04.729Z,9.90
2018-05-12T04:08:44.155Z,9.90
2018-05-12T04:11:23.583Z,9.90
2018-05-12T04:13:51.054Z,10.00
2018-05-12T04:16:18.533Z,10.00
2018-05-12T04:18:46.004Z,10.00
2018-05-12T04:21:13.478Z,10.00
2018-05-12T04:23:40.975Z,10.00
2018-05-12T04:26:09.207Z,10.10
2018-05-12T04:28:36.673Z,10.00
2018-05-12T04:31:04.154Z,10.10
2018-05-12T04:33:31.609Z,10.10
2018-05-12T04:35:59.114Z,10.10
2018-05-12T04:38:27.346Z,10.30
2018-05-12T04:40:54.826Z,10.20
2018-05-12T04:43:22.403Z,10.30
2018-05-12T04:45:50.565Z,10.50
2018-05-12T04:48:18.059Z,10.40
2018-05-12T04:50:46.293Z,10.60
2018-05-12T04:53:13.768Z,10.50
2018-05-12T04:55:41.236Z,10.60
2018-05-12T04:58:08.710Z,10.60
2018-05-12T05:00:36.208Z,10.60
2018-05-12T05:03:04.451Z,10.60
2018-05-12T05:05:31.940Z,10.60
2018-05-12T05:08:00.173Z,10.80
2018-05-12T05:10:27.649Z,10.70
2018-05-12T05:12:55.137Z,10.90
2018-05-12T05:15:22.620Z,10.90
2018-05-12T05:17:50.852Z,11.10
2018-05-12T05:20:18.353Z,11.10
2018-05-12T05:22:46.584Z,11.30
2018-05-12T05:25:14.090Z,11.20
2018-05-12T05:27:41.581Z,11.40
2018-05-12T05:30:09.808Z,11.60
2018-05-12T05:32:37.281Z,11.50
2018-05-12T05:35:04.750Z,11.70
2018-05-12T05:37:32.235Z,11.80
2018-05-12T05:39:59.706Z,11.80
2018-05-12T05:42:27.932Z,12.00
2018-05-12T05:44:55.406Z,12.00
2018-05-12T05:47:22.872Z,12.10
2018-05-12T05:49:50.357Z,12.20
2018-05-12T05:52:17.847Z,12.30
2018-05-12T05:54:46.074Z,12.50
2018-05-12T05:57:13.541Z,12.50
2018-05-12T05:59:41.014Z,12.70
2018-05-12T06:02:08.499Z,12.80
2018-05-12T06:04:35.977Z,12.90
2018-05-12T06:07:04.280Z,13.20
2018-05-12T06:09:31.707Z,13.20
2018-05-12T06:11:59.181Z,13.30
2018-05-12T06:14:26.683Z,13.40
2018-05-12T06:16:54.159Z,13.50
2018-05-12T06:19:21.622Z,13.60
2018-05-12T06:21:49.089Z,13.70
2018-05-12T06:24:16.560Z,13.80
2018-05-12T06:26:44.053Z,13.90
2018-05-12T06:29:11.533Z,14.10
2018-05-12T06:31:38.999Z,14.20
2018-05-12T06:34:07.228Z,14.40
2018-05-12T06:36:34.697Z,14.50
2018-05-12T06:39:02.190Z,14.60
2018-05-12T06:41:29.645Z,14.70
2018-05-12T06:43:57.109Z,14.80
2018-05-12T06:46:24.574Z,14.90
2018-05-12T06:48:52.041Z,15.00
2018-05-12T06:51:19.529Z,15.00
2018-05-12T06:53:47.767Z,15.30
2018-05-12T06:56:15.240Z,15.30
2018-05-12T06:58:42.715Z,15.40
2018-05-12T07:01:10.208Z,15.60
2018-05-12T07:03:38.469Z,15.90
2018-05-12T07:06:05.957Z,15.80
2018-05-12T07:08:34.179Z,16.10
2018-05-12T07:11:01.651Z,16.00
2018-05-12T07:13:29.119Z,16.10
2018-05-12T07:15:56.622Z,16.20
2018-05-12T07:18:24.848Z,16.30
2018-05-12T07:20:52.307Z,16.30
2018-05-12T07:23:19.775Z,16.50
2018-05-12T07:25:47.245Z,16.50
2018-05-12T07:28:14.745Z,16.60
2018-05-12T07:30:42.207Z,16.70
2018-05-12T07:33:09.682Z,16.80
2018-05-12T07:35:37.923Z,17.00
2018-05-12T07:38:05.383Z,16.90
2018-05-12T07:40:32.869Z,17.20
2018-05-12T07:43:00.333Z,17.30
2018-05-12T07:45:27.878Z,17.50
2018-05-12T07:47:56.033Z,17.50
2018-05-12T07:50:23.505Z,17.50
2018-05-12T07:52:51.001Z,17.60
2018-05-12T07:55:18.472Z,17.70
2018-05-12T07:57:45.949Z,17.80
2018-05-12T08:00:14.263Z,18.00
2018-05-12T08:02:42.439Z,18.20
2018-05-12T08:05:09.918Z,18.20
2018-05-12T08:07:37.387Z,18.30
2018-05-12T08:10:04.857Z,18.50
2018-05-12T08:12:32.328Z,18.70
2018-05-12T08:14:59.808Z,18.80
2018-05-12T08:17:27.289Z,18.90
2018-05-12T08:19:55.517Z,19.00
2018-05-12T08:22:22.993Z,19.10
2018-05-12T08:24:50.466Z,19.10
2018-05-12T08:27:17.931Z,19.10
2018-05-12T08:29:45.424Z,19.10
2018-05-12T08:32:12.890Z,19.20
2018-05-12T08:34:41.135Z,19.40
2018-05-12T08:37:08.612Z,19.30
2018-05-12T08:39:36.087Z,19.40
2018-05-12T08:42:03.657Z,19.40
2018-05-12T08:44:31.081Z,19.40
2018-05-12T08:46:58.549Z,19.40
2018-05-12T08:49:26.023Z,19.40
2018-05-12T08:51:53.499Z,19.50
2018-05-12T08:54:20.997Z,19.50
2018-05-12T08:56:49.234Z,19.70
2018-05-12T08:59:16.706Z,19.70
2018-05-12T09:01:44.179Z,19.80
2018-05-12T09:04:11.654Z,19.90
2018-05-12T09:06:39.910Z,20.10
2018-05-12T09:09:07.383Z,20.10
2018-05-12T09:11:34.868Z,20.20
2018-05-12T09:14:03.109Z,20.30
2018-05-12T09:16:30.577Z,20.30
2018-05-12T09:18:58.071Z,20.40
2018-05-12T09:21:25.538Z,20.50
2018-05-12T09:23:53.785Z,20.60
2018-05-12T09:26:21.258Z,20.60
2018-05-12T09:28:48.737Z,20.70
2018-05-12T09:31:16.228Z,20.80
2018-05-12T09:33:43.691Z,20.80
2018-05-12T09:36:11.178Z,20.80
2018-05-12T09:38:38.651Z,20.80
2018-05-12T09:41:06.119Z,20.90
2018-05-12T09:43:33.597Z,21.00
2018-05-12T09:46:01.060Z,21.10
2018-05-12T09:48:28.533Z,21.10
2018-05-12T09:50:55.998Z,21.10
2018-05-12T09:53:23.455Z,21.10
2018-05-12T09:55:50.921Z,21.20
2018-05-12T09:58:18.374Z,21.30
2018-05-12T10:00:45.833Z,21.30
2018-05-12T10:03:13.305Z,21.30
2018-05-12T10:05:40.765Z,21.30
2018-05-12T10:08:08.251Z,21.40
2018-05-12T10:10:35.722Z,21.40
2018-05-12T10:13:03.191Z,21.50
2018-05-12T10:15:31.438Z,21.60
2018-05-12T10:17:58.903Z,21.60
2018-05-12T10:20:26.397Z,21.70
2018-05-12T10:22:54.632Z,21.80
2018-05-12T10:25:22.108Z,21.80
2018-05-12T10:27:49.566Z,21.80
2018-05-12T10:30:17.040Z,21.70
2018-05-12T10:32:44.527Z,21.70
2018-05-12T10:35:11.988Z,21.70
2018-05-12T10:37:39.458Z,21.80
2018-05-12T10:40:06.928Z,21.90
2018-05-12T10:42:35.164Z,22.00
2018-05-12T10:45:02.638Z,22.00
2018-05-12T10:47:30.119Z,22.10
2018-05-12T10:49:57.581Z,22.10
2018-05-12T10:52:25.066Z,22.30
2018-05-12T10:54:53.300Z,22.50
2018-05-12T10:57:20.774Z,22.50
2018-05-12T10:59:48.244Z,22.70
2018-05-12T11:02:15.729Z,22.80
2018-05-12T11:04:43.191Z,22.80
2018-05-12T11:07:10.666Z,22.80
2018-05-12T11:09:38.977Z,22.70
2018-05-12T11:12:06.402Z,22.70
2018-05-12T11:14:33.866Z,22.60
2018-05-12T11:17:01.328Z,22.50
2018-05-12T11:19:28.796Z,22.50
2018-05-12T11:21:56.320Z,22.50
2018-05-12T11:24:23.762Z,22.60
2018-05-12T11:26:51.235Z,22.70
2018-05-12T11:29:18.698Z,22.80
2018-05-12T11:31:46.166Z,22.90
2018-05-12T11:34:13.661Z,22.90
2018-05-12T11:36:41.132Z,23.00
2018-05-12T11:39:08.602Z,22.90
2018-05-12T11:41:36.070Z,23.10
2018-05-12T11:44:03.533Z,23.10
2018-05-12T11:46:31.798Z,23.20
2018-05-12T11:49:00.062Z,23.30
2018-05-12T11:51:27.573Z,23.20
2018-05-12T11:53:54.983Z,23.30
2018-05-12T11:56:23.224Z,23.20
2018-05-12T11:58:51.475Z,23.20
2018-05-12T12:01:18.938Z,23.10
2018-05-12T12:03:46.520Z,23.10
2018-05-12T12:06:13.878Z,23.10
2018-05-12T12:08:42.111Z,23.10
2018-05-12T12:11:09.614Z,23.10
2018-05-12T12:13:37.075Z,23.20
2018-05-12T12:16:04.547Z,23.30
2018-05-12T12:18:32.006Z,23.40
2018-05-12T12:20:59.464Z,23.50
2018-05-12T12:23:26.960Z,23.60
2018-05-12T12:25:55.196Z,23.70
2018-05-12T12:28:22.660Z,23.70
2018-05-12T12:30:50.122Z,23.60
2018-05-12T12:33:17.650Z,23.60
2018-05-12T12:35:45.089Z,23.70
2018-05-12T12:38:13.330Z,23.80
2018-05-12T12:40:40.788Z,23.80
2018-05-12T12:43:08.261Z,23.80
2018-05-12T12:45:35.734Z,23.80
2018-05-12T12:48:03.204Z,23.90
2018-05-12T12:50:30.662Z,23.90
2018-05-12T12:52:58.131Z,24.00
2018-05-12T12:55:25.601Z,23.90
2018-05-12T12:57:53.080Z,23.90
2018-05-12T13:00:21.330Z,24.10
2018-05-12T13:02:48.804Z,24.00
2018-05-12T13:05:16.272Z,24.10
2018-05-12T13:07:43.724Z,24.10
2018-05-12T13:10:11.196Z,24.20
2018-05-12T13:12:38.691Z,24.20
2018-05-12T13:15:06.162Z,24.20
2018-05-12T13:17:33.628Z,24.30
2018-05-12T13:20:01.102Z,24.30
2018-05-12T13:22:28.570Z,24.30
2018-05-12T13:24:56.052Z,24.30
2018-05-12T13:27:23.516Z,24.30
2018-05-12T13:29:50.979Z,24.30
2018-05-12T13:32:18.449Z,24.30
2018-05-12T13:34:45.921Z,24.30
2018-05-12T13:37:13.435Z,24.30
2018-05-12T13:39:40.930Z,24.30
2018-05-12T13:42:08.390Z,24.40
2018-05-12T13:44:35.869Z,24.40
2018-05-12T13:47:03.328Z,24.50
2018-05-12T13:49:30.800Z,24.60
2018-05-12T13:51:58.264Z,24.60
2018-05-12T13:54:25.742Z,24.60
2018-05-12T13:56:53.294Z,24.70
2018-05-12T13:59:21.462Z,24.80
2018-05-12T14:01:48.939Z,24.80
2018-05-12T14:04:16.474Z,24.90
2018-05-12T14:06:43.965Z,25.00
2018-05-12T14:09:11.445Z,25.10
2018-05-12T14:11:38.921Z,25.00
2018-05-12T14:14:07.198Z,25.00
2018-05-12T14:16:34.674Z,25.00
2018-05-12T14:19:03.002Z,24.70
2018-05-12T14:21:30.395Z,24.70
2018-05-12T14:23:57.860Z,24.60
2018-05-12T14:26:25.337Z,24.50
2018-05-12T14:28:53.599Z,24.60
2018-05-12T14:31:21.069Z,24.60
2018-05-12T14:33:48.547Z,24.60
2018-05-12T14:36:16.777Z,24.70
2018-05-12T14:38:44.321Z,24.70
2018-05-12T14:41:11.795Z,24.70
2018-05-12T14:43:39.267Z,24.80
2018-05-12T14:46:06.813Z,24.80
2018-05-12T14:48:34.296Z,24.80
2018-05-12T14:51:01.800Z,24.70
2018-05-12T14:53:29.263Z,24.70
2018-05-12T14:55:56.724Z,24.70
2018-05-12T14:58:24.217Z,24.70
2018-05-12T15:00:51.695Z,24.80
2018-05-12T15:03:19.175Z,24.80
2018-05-12T15:05:46.682Z,24.80
2018-05-12T15:08:14.177Z,24.90
2018-05-12T15:10:41.618Z,24.90
2018-05-12T15:13:09.099Z,24.90
2018-05-12T15:15:37.357Z,24.90
2018-05-12T15:18:04.830Z,24.90
2018-05-12T15:20:32.315Z,24.90
2018-05-12T15:23:00.605Z,24.80
2018-05-12T15:59:13.609Z,22.10
2018-05-12T16:01:41.078Z,22.30
2018-05-12T16:04:08.553Z,22.40
2018-05-12T16:06:36.036Z,22.50
2018-05-12T16:09:04.335Z,22.90
2018-05-12T16:11:32.596Z,22.90
2018-05-12T16:14:00.906Z,23.00
2018-05-12T16:16:28.377Z,23.00
2018-05-12T16:18:56.085Z,23.10
2018-05-12T16:21:23.565Z,23.10
2018-05-12T16:23:51.060Z,23.10
2018-05-12T16:26:18.525Z,23.20
2018-05-12T16:28:45.991Z,23.30
2018-05-12T16:31:13.534Z,23.30
2018-05-12T16:33:40.951Z,23.30
2018-05-12T16:36:08.449Z,23.30
2018-05-12T16:38:35.917Z,23.30
2018-05-12T16:41:03.383Z,23.40
2018-05-12T16:43:30.853Z,23.40
2018-05-12T16:45:59.083Z,23.40
2018-05-12T16:48:26.600Z,23.40
2018-05-12T16:50:54.880Z,23.50
2018-05-12T16:53:22.326Z,23.50
2018-05-12T16:55:49.799Z,23.60
2018-05-12T16:58:17.265Z,23.50
2018-05-12T17:00:44.751Z,23.40
2018-05-12T17:03:12.221Z,23.30
2018-05-12T17:05:39.699Z,23.20
2018-05-12T17:08:07.172Z,23.00
2018-05-12T17:10:34.627Z,22.80
2018-05-12T17:13:02.121Z,22.70
2018-05-12T17:15:29.597Z,22.60
2018-05-12T17:17:57.081Z,22.70
2018-05-12T17:20:25.309Z,22.70
2018-05-12T17:22:52.801Z,22.70
2018-05-12T17:25:20.285Z,23.00
2018-05-12T17:27:47.753Z,23.50
2018-05-12T17:30:16.002Z,24.10
2018-05-12T17:32:43.486Z,24.10
2018-05-12T17:35:11.737Z,23.90
2018-05-12T17:37:39.213Z,23.90
2018-05-12T17:40:06.677Z,23.70
2018-05-12T17:42:34.137Z,23.50
2018-05-12T17:45:01.629Z,23.30
2018-05-12T17:47:29.091Z,23.10
2018-05-12T17:49:56.617Z,22.90
2018-05-12T17:52:24.051Z,22.70
2018-05-12T17:54:51.535Z,22.60
2018-05-12T17:57:18.998Z,22.40
2018-05-12T17:59:46.463Z,22.30
2018-05-12T18:02:13.958Z,22.20
2018-05-12T18:04:41.429Z,22.10
2018-05-12T18:07:08.895Z,22.00
2018-05-12T18:09:36.366Z,21.80
2018-05-12T18:12:03.834Z,21.80
2018-05-12T18:14:32.093Z,21.60
2018-05-12T18:16:59.559Z,21.50
2018-05-12T18:19:27.117Z,21.40
2018-05-12T18:21:54.581Z,21.30
2018-05-12T18:24:22.051Z,21.20
2018-05-12T18:26:49.538Z,21.10
2018-05-12T18:29:17.774Z,20.90
2018-05-12T18:31:45.242Z,20.90
2018-05-12T18:34:13.468Z,20.70
2018-05-12T18:36:41.709Z,20.70
2018-05-12T18:39:09.280Z,20.70
2018-05-12T18:41:36.793Z,20.60
2018-05-12T18:44:04.283Z,20.50
2018-05-12T18:46:31.753Z,20.40
2018-05-12T18:48:59.255Z,20.30
2018-05-12T18:51:26.748Z,20.20
2018-05-12T18:53:54.242Z,20.10
2018-05-12T18:56:21.705Z,20.00
2018-05-12T18:58:49.183Z,19.90
2018-05-12T19:01:16.639Z,19.80
2018-05-12T19:03:44.133Z,19.70
2018-05-12T19:06:11.607Z,19.60
2018-05-12T19:08:39.068Z,19.50
2018-05-12T19:11:06.529Z,19.50
2018-05-12T19:13:34.000Z,19.40
2018-05-12T19:16:01.499Z,19.40
2018-05-12T19:18:28.971Z,19.30
2018-05-12T19:20:56.455Z,19.30
2018-05-12T19:23:23.919Z,19.20
2018-05-12T19:25:51.386Z,19.10
2018-05-12T19:28:18.880Z,19.10
2018-05-12T19:30:46.375Z,19.00
2018-05-12T19:33:13.845Z,19.00
2018-05-12T19:35:41.324Z,19.00
2018-05-12T19:38:08.790Z,18.90
2018-05-12T19:40:36.289Z,18.80
2018-05-12T19:43:03.759Z,18.80
2018-05-12T19:45:31.235Z,18.80
2018-05-12T19:47:59.479Z,18.70
2018-05-12T19:50:26.955Z,18.70
2018-05-12T19:52:54.441Z,18.70
2018-05-12T19:55:21.945Z,18.70
2018-05-12T19:57:49.413Z,18.70
2018-05-12T20:00:16.914Z,18.70
2018-05-12T20:02:44.379Z,18.60
2018-05-12T20:05:11.871Z,18.60
2018-05-12T20:07:40.107Z,18.60
2018-05-12T20:10:07.581Z,18.60
2018-05-12T20:12:35.056Z,18.60
2018-05-12T20:15:02.520Z,18.60
2018-05-12T20:17:30.006Z,18.50
2018-05-12T20:19:58.257Z,18.40
2018-05-12T20:22:25.721Z,18.40
2018-05-12T20:24:53.192Z,18.40
2018-05-12T20:27:20.670Z,18.30
2018-05-12T20:29:48.950Z,18.30
2018-05-12T20:32:16.434Z,18.30
2018-05-12T20:34:44.675Z,18.30
2018-05-12T20:37:12.942Z,18.30
2018-05-12T20:39:40.406Z,18.30
2018-05-12T20:42:07.893Z,18.30
2018-05-12T20:44:35.389Z,18.30
2018-05-12T20:47:03.617Z,18.20
2018-05-12T20:49:31.092Z,18.20
2018-05-12T20:51:58.574Z,18.10
2018-05-12T20:54:26.079Z,18.00
2018-05-12T20:56:53.564Z,18.00
2018-05-12T20:59:21.032Z,18.00
2018-05-12T21:01:48.500Z,18.10
2018-05-12T21:04:15.996Z,18.10
2018-05-12T21:06:43.482Z,18.20
2018-05-12T21:09:10.953Z,18.20
2018-05-12T21:11:38.441Z,18.30
2018-05-12T21:14:05.915Z,18.30
2018-05-12T21:16:33.383Z,18.30
2018-05-12T21:19:00.868Z,18.30
2018-05-12T21:21:28.354Z,18.20
2018-05-12T21:23:56.702Z,17.90
2018-05-12T21:26:24.074Z,17.90
2018-05-12T21:28:51.569Z,17.80
2018-05-12T21:31:19.833Z,17.50
2018-05-12T21:33:47.298Z,17.40
2018-05-12T21:36:15.541Z,17.10
2018-05-12T21:38:43.021Z,17.10
2018-05-12T21:41:10.492Z,17.00
2018-05-12T21:43:37.967Z,16.80
2018-05-12T21:46:05.500Z,16.70
2018-05-12T21:48:33.663Z,16.40
2018-05-12T21:51:01.136Z,16.40
2018-05-12T21:53:28.614Z,16.30
2018-05-12T21:55:56.119Z,16.20
2018-05-12T21:58:24.357Z,15.90
2018-05-12T22:00:51.833Z,15.90
2018-05-12T22:03:19.286Z,15.80
2018-05-12T22:05:47.522Z,15.70
2018-05-12T22:08:15.026Z,15.70
2018-05-12T22:10:42.482Z,15.70
2018-05-12T22:13:09.945Z,15.70
2018-05-12T22:15:37.422Z,15.60
2018-05-12T22:18:04.884Z,15.60
2018-05-12T22:20:32.352Z,15.60
2018-05-12T22:22:59.814Z,15.60
2018-05-12T22:25:27.280Z,15.60
2018-05-12T22:27:54.748Z,15.50
2018-05-12T22:30:22.284Z,15.60
2018-05-12T22:32:49.742Z,15.60
2018-05-12T22:35:17.222Z,15.60
2018-05-12T22:37:44.686Z,15.60
2018-05-12T22:40:12.162Z,15.60
2018-05-12T22:42:40.399Z,15.70
2018-05-12T22:45:07.890Z,15.60
2018-05-12T22:47:35.358Z,15.70
2018-05-12T22:50:02.842Z,15.70
2018-05-12T22:52:30.312Z,15.70
2018-05-12T22:54:57.793Z,15.80
2018-05-12T22:57:25.268Z,15.80
2018-05-12T22:59:53.482Z,15.70
2018-05-12T23:02:20.938Z,15.70
2018-05-12T23:04:48.402Z,15.70
2018-05-12T23:07:15.889Z,15.60
2018-05-12T23:09:44.146Z,15.60
2018-05-12T23:12:11.703Z,15.60
2018-05-12T23:14:39.158Z,15.60
2018-05-12T23:17:06.628Z,15.60
2018-05-12T23:19:34.096Z,15.60
2018-05-12T23:22:01.592Z,15.60
2018-05-12T23:24:29.076Z,15.60
2018-05-12T23:26:56.536Z,15.60
2018-05-12T23:29:24.008Z,15.60
2018-05-12T23:31:51.481Z,15.50
2018-05-12T23:34:18.971Z,15.60
2018-05-12T23:36:46.430Z,15.50
2018-05-12T23:39:13.908Z,15.50
2018-05-12T23:41:41.376Z,15.50
2018-05-12T23:44:08.848Z,15.50
2018-05-12T23:46:36.318Z,15.50
2018-05-12T23:49:03.784Z,15.50
2018-05-12T23:51:31.262Z,15.40
2018-05-12T23:53:58.724Z,15.40
2018-05-12T23:56:26.185Z,15.40
2018-05-12T23:58:53.676Z,15.40
